Volcano, HI

9:59 AM HST on April 19, 2015 (GMT -1000)
Bradshaw Army Air Field | | Change Station
CLOSE
Current Station
Airport
Location: Bradshaw AFB,
Elevation: 6191 ft
Nearby Weather Stations

Elev 6191 ft 19.76 °N, 155.55 °W | Updated 3 minutes ago

Partly Cloudy
Partly Cloudy
62 °F
Feels Like 62 °F
N
9
Wind Variable Wind from West
Gusts 16 mph

Today
High -- | Low -- °F
--% Chance of Precip.
Yesterday
High -- | Low -- °F
Precip. -- in
6:00 AM 6:40 PM
New Moon, 2% visible
Pressure 30.09 in
Visibility 9.0 miles
Clouds Few 19000 ft
Dew Point 50 °F
Humidity 65%
Rainfall 0.00 in
Snow Depth Not available.
UV 9 out of 12
Pollen Not available.
Air Quality Not available.
Flu Activity Regional
METAR PHSF 191956Z AUTO 27008G14KT 9SM FEW190 17/10 A3038 RMK AO2 SLP188 T01650098 $

More Conditions Fewer Conditions

Pressure 30.09 in
Visibility 9.0 miles
Clouds Few 19000 ft
Dew Point 50 °F
Humidity 65%
Rainfall 0.00 in
Snow Depth Not available.
UV 9 out of 12
Pollen Not available.
Air Quality Not available.
Flu Activity Regional
METAR PHSF 191956Z AUTO 27008G14KT 9SM FEW190 17/10 A3038 RMK AO2 SLP188 T01650098 $

More Conditions Fewer Conditions

10-Day Weather Forecast

Almanac

Astronomy

Apr. 19, 2015 Rise Set
Actual Time
Civil Twilight
Nautical Twilight
Astronomical Twilight
Moon
Length of Visible Light
Length of Day
Tomorrow will be .
, % of the Moon is Illuminated

Today's Extremes

State Highs State Lows

Community

WunderPhotos

Upload Photos

1,814,950 photos uploaded!

WunderBlogs® & News

Nearby

Air Quality

  Air Quality AQ Index Pollutant
Not available.

Snow Depth

Station Depth Elevation

Earthquake Activity

City Distance Mag. Time & Date
Minimum magnitude displayed is 2.5.

Coastal Water Temperatures

Place Temperature

Stations

Nearby Weather Stations

Station Location Temp. Windchill Dew Point Humidity Wind Precip. Elev Updated Type